Flugplatz Würzburg-Schenkenturm

Für EDFW sind keine METAR/TAF Berichte vorhanden.
Es werden die Flugwettermeldungen vom Flugplatz Niederstetten Airport in 47 km Entfernung angezeigt.

Bericht für ETHN

vom 20.10. um 18:20 UTC

Wind 6 kt aus 130°

Sichtweite 10 km oder mehr

aufgelockert bewölkt in 14000 ft

aufgebrochene Bewölkung in 22000 ft

Temperatur 13.0°C

Taupunkt 11.0°C

Luftfeuchtigkeit 88%

Luftdruck 1009 hPa

ETHN 201820Z 13006KT 9999 SCT140 BKN220 13/11 Q1009 BLU+
Keine Prognose (TAF) verfügbar.
Impressum